Time;durP1;ratioP1;P1;durP2;ratioP2;P2;SDS_P1;SDS_P2;PMS_P1;PMS_P2;Temp;Humidity;BMP_temperature;BMP_pressure;BME280_temperature;BME280_humidity;BME280_pressure;Samples;Min_cycle;Max_cycle;Signal;HPM_P1;HPM_P2
2024/01/03 00:00:51;;;;;;;0.30;0.30;;;10.10;63.90;;;;;;5050522;28;20091;-71
2024/01/03 00:03:17;;;;;;;0.00;0.00;;;10.10;63.80;;;;;;5052502;28;20508;-73
2024/01/03 00:05:44;;;;;;;;;;;10.20;63.10;;;;;;5051112;28;20117;-73
2024/01/03 00:08:26;;;;;;;;;;;10.20;63.10;;;;;;5035350;28;19943;-72
2024/01/03 00:10:55;;;;;;;2.85;1.65;;;10.20;63.20;;;;;;5051493;28;19924;-73
2024/01/03 00:16:22;;;;;;;0.10;0.10;;;10.30;63.60;;;;;;5052621;28;20048;-72
2024/01/03 00:18:57;;;;;;;0.10;0.10;;;10.30;62.50;;;;;;5050917;28;20047;-72
2024/01/03 00:21:44;;;;;;;0.20;0.20;;;10.30;63.00;;;;;;5051545;28;20444;-72
2024/01/03 00:24:14;;;;;;;0.30;0.20;;;10.30;62.80;;;;;;5052288;28;20041;-71
2024/01/03 00:26:41;;;;;;;0.10;0.10;;;10.30;62.70;;;;;;5050832;28;20488;-73
2024/01/03 00:29:54;;;;;;;0.32;0.30;;;10.40;62.90;;;;;;5051947;28;20498;-73
2024/01/03 00:32:23;;;;;;;0.00;0.00;;;10.40;62.30;;;;;;5051852;28;20037;-72
2024/01/03 00:34:49;;;;;;;0.13;0.13;;;10.40;62.40;;;;;;5051658;28;20059;-73
2024/01/03 00:37:35;;;;;;;0.00;0.00;;;10.40;62.60;;;;;;5051967;28;20033;-70
2024/01/03 00:40:06;;;;;;;0.00;0.00;;;10.50;62.70;;;;;;5050933;28;20446;-71
2024/01/03 00:42:32;;;;;;;0.10;0.10;;;10.50;62.20;;;;;;5050537;28;20091;-71
2024/01/03 00:44:58;;;;;;;0.10;0.10;;;10.50;62.60;;;;;;5050668;28;20037;-70
2024/01/03 00:47:25;;;;;;;0.10;0.10;;;10.50;62.80;;;;;;5050796;28;20033;-70
2024/01/03 00:49:52;;;;;;;0.00;0.00;;;10.50;62.70;;;;;;5050555;28;20033;-71
2024/01/03 00:52:20;;;;;;;0.10;0.10;;;10.60;62.10;;;;;;5050360;28;20149;-70
2024/01/03 00:54:46;;;;;;;0.93;0.32;;;10.60;61.50;;;;;;5050576;28;20425;-71
2024/01/03 00:57:12;;;;;;;;;;;10.70;61.30;;;;;;5051285;28;20041;-73
2024/01/03 00:59:38;;;;;;;0.00;0.00;;;10.70;61.70;;;;;;5051835;28;20293;-69
2024/01/03 01:02:05;;;;;;;0.05;0.05;;;10.90;61.30;;;;;;5033512;28;20402;-70
2024/01/03 01:04:32;;;;;;;0.10;0.10;;;11.00;60.70;;;;;;5050371;28;20033;-71
2024/01/03 01:06:59;;;;;;;0.25;0.20;;;11.10;60.50;;;;;;5050386;28;20056;-69
2024/01/03 01:09:25;;;;;;;;;;;11.10;60.50;;;;;;5051018;28;20397;-72
2024/01/03 01:11:51;;;;;;;3.63;1.65;;;11.30;60.30;;;;;;5054881;28;20331;-74
2024/01/03 01:14:17;;;;;;;0.52;0.13;;;11.30;60.50;;;;;;5054155;28;20032;-71
2024/01/03 01:16:43;;;;;;;0.10;0.10;;;11.30;61.20;;;;;;5055735;28;20112;-72
2024/01/03 01:19:09;;;;;;;0.10;0.10;;;11.40;60.50;;;;;;5037482;28;20048;-73
2024/01/03 01:21:39;;;;;;;0.00;0.00;;;11.40;60.20;;;;;;5053621;28;20056;-72
2024/01/03 01:24:06;;;;;;;2.08;0.90;;;11.40;60.10;;;;;;5054118;28;20037;-70
2024/01/03 01:26:32;;;;;;;;;;;11.50;60.20;;;;;;5054485;28;20462;-70
2024/01/03 01:28:58;;;;;;;0.10;0.10;;;11.50;60.30;;;;;;5053851;28;19916;-70
2024/01/03 01:31:24;;;;;;;0.00;0.00;;;11.50;60.40;;;;;;5053345;28;20051;-70
2024/01/03 01:33:50;;;;;;;0.03;0.03;;;11.50;60.60;;;;;;5053750;28;20032;-70
2024/01/03 01:36:16;;;;;;;0.10;0.10;;;11.40;61.00;;;;;;5055148;28;20041;-71
2024/01/03 01:38:43;;;;;;;1.50;0.98;;;11.40;61.10;;;;;;5054695;28;20071;-71
2024/01/03 01:41:09;;;;;;;0.00;0.00;;;11.40;61.60;;;;;;5054471;28;20060;-71
2024/01/03 01:43:35;;;;;;;0.10;0.10;;;11.30;61.80;;;;;;5054983;28;20036;-70
2024/01/03 01:46:02;;;;;;;0.00;0.00;;;11.30;61.60;;;;;;5053431;28;20049;-71
2024/01/03 01:48:28;;;;;;;0.10;0.10;;;11.20;61.40;;;;;;5053545;28;20025;-69
2024/01/03 01:50:54;;;;;;;;;;;11.20;61.30;;;;;;5036966;28;20029;-69
2024/01/03 01:53:20;;;;;;;0.10;0.10;;;11.10;61.10;;;;;;5053579;28;19949;-70
2024/01/03 01:55:46;;;;;;;;;;;11.10;61.40;;;;;;5054957;28;20044;-70
2024/01/03 01:58:14;;;;;;;0.00;0.00;;;11.00;60.50;;;;;;5053417;28;20019;-71
2024/01/03 02:00:41;;;;;;;0.10;0.10;;;11.00;61.50;;;;;;5054144;28;20386;-70
2024/01/03 02:03:10;;;;;;;0.38;0.25;;;11.10;61.30;;;;;;5053447;28;20048;-71
2024/01/03 02:05:37;;;;;;;0.10;0.10;;;11.00;61.10;;;;;;5052605;28;20021;-69
2024/01/03 02:08:08;;;;;;;0.10;0.10;;;11.00;61.30;;;;;;5053160;28;20270;-70
2024/01/03 02:10:34;;;;;;;0.65;0.10;;;11.00;61.20;;;;;;5052494;28;20394;-71
2024/01/03 02:13:00;;;;;;;0.10;0.10;;;11.00;61.10;;;;;;5053070;28;20033;-71
2024/01/03 02:15:27;;;;;;;0.10;0.10;;;10.90;61.40;;;;;;5052645;28;20437;-70
2024/01/03 02:17:55;;;;;;;0.10;0.10;;;11.00;61.70;;;;;;5052851;28;20039;-71
2024/01/03 02:20:25;;;;;;;0.35;0.20;;;10.90;61.70;;;;;;5051969;28;20044;-70
2024/01/03 02:22:51;;;;;;;0.00;0.00;;;10.90;61.70;;;;;;5053017;28;20447;-70
2024/01/03 02:25:17;;;;;;;;;;;10.90;61.80;;;;;;5053310;28;20028;-71
2024/01/03 02:27:43;;;;;;;0.10;0.10;;;10.90;61.70;;;;;;5053928;28;19920;-70
2024/01/03 02:30:11;;;;;;;0.10;0.10;;;10.90;61.80;;;;;;5035383;28;20040;-70
2024/01/03 02:32:37;;;;;;;0.05;0.05;;;10.90;61.90;;;;;;5052996;28;20100;-73
2024/01/03 02:35:05;;;;;;;0.10;0.10;;;10.90;61.90;;;;;;5052676;28;20397;-72
2024/01/03 02:37:31;;;;;;;0.10;0.10;;;10.90;61.60;;;;;;5052966;28;20382;-71
2024/01/03 02:39:57;;;;;;;0.38;0.10;;;10.90;62.10;;;;;;5052392;28;20402;-70
2024/01/03 02:42:23;;;;;;;0.25;0.20;;;10.90;62.30;;;;;;5053482;28;20041;-70
2024/01/03 02:44:49;;;;;;;0.47;0.20;;;10.90;62.40;;;;;;5035841;28;20040;-70
2024/01/03 02:47:15;;;;;;;0.20;0.20;;;10.90;62.40;;;;;;5053590;28;20041;-71
2024/01/03 02:49:41;;;;;;;4.72;0.80;;;10.90;62.50;;;;;;5052229;28;20029;-71
2024/01/03 02:52:07;;;;;;;0.10;0.10;;;10.90;62.70;;;;;;5053275;28;20033;-71
2024/01/03 02:54:33;;;;;;;0.20;0.17;;;10.90;62.50;;;;;;5052095;28;20029;-70
2024/01/03 02:56:59;;;;;;;0.30;0.17;;;10.90;62.50;;;;;;5035459;28;20083;-71
2024/01/03 02:59:25;;;;;;;0.10;0.10;;;10.90;62.30;;;;;;5053194;28;20058;-70
2024/01/03 03:01:52;;;;;;;0.00;0.00;;;10.90;62.20;;;;;;5051803;28;20052;-70
2024/01/03 03:04:17;;;;;;;;;;;10.90;61.40;;;;;;5052786;28;20557;-71
2024/01/03 03:06:44;;;;;;;0.00;0.00;;;10.90;62.20;;;;;;5053286;28;19921;-70
2024/01/03 03:09:10;;;;;;;0.10;0.10;;;10.80;62.10;;;;;;5051941;28;20489;-70
2024/01/03 03:11:36;;;;;;;0.00;0.00;;;10.80;61.60;;;;;;5052897;28;20045;-70
2024/01/03 03:14:02;;;;;;;0.13;0.13;;;10.90;62.10;;;;;;5051985;28;20025;-71
2024/01/03 03:16:28;;;;;;;0.20;0.20;;;10.90;62.10;;;;;;5051890;28;20302;-71
2024/01/03 03:18:54;;;;;;;0.10;0.10;;;10.80;62.00;;;;;;5051694;28;20033;-71
2024/01/03 03:21:20;;;;;;;0.10;0.10;;;10.90;62.40;;;;;;5052469;28;20037;-69
2024/01/03 03:23:46;;;;;;;0.08;0.08;;;10.80;62.10;;;;;;5051783;28;20359;-70
2024/01/03 03:26:12;;;;;;;0.10;0.10;;;10.80;62.00;;;;;;5051691;28;20037;-71
2024/01/03 03:28:38;;;;;;;0.00;0.00;;;10.80;62.00;;;;;;5051683;28;20037;-73
2024/01/03 03:31:04;;;;;;;0.00;0.00;;;10.80;62.40;;;;;;5050885;28;20033;-70
2024/01/03 03:33:32;;;;;;;0.22;0.15;;;10.80;62.40;;;;;;5051134;28;20112;-70
2024/01/03 03:35:58;;;;;;;0.20;0.20;;;10.80;62.60;;;;;;5051299;28;20080;-70
2024/01/03 03:38:24;;;;;;;;;;;10.80;62.00;;;;;;5052054;28;20069;-70
2024/01/03 03:40:50;;;;;;;0.43;0.40;;;10.70;63.00;;;;;;5052043;28;19921;-70
2024/01/03 03:43:16;;;;;;;0.25;0.13;;;10.70;62.80;;;;;;5051501;28;20035;-71
2024/01/03 03:45:42;;;;;;;0.52;0.38;;;10.70;62.80;;;;;;5052457;28;20056;-70
2024/01/03 03:48:08;;;;;;;0.10;0.10;;;10.70;62.70;;;;;;5034858;28;20074;-73
2024/01/03 03:50:34;;;;;;;;;;;10.80;62.80;;;;;;5052316;28;20033;-72
2024/01/03 03:53:00;;;;;;;0.10;0.10;;;10.80;63.20;;;;;;5052657;28;20000;-70
2024/01/03 03:55:26;;;;;;;0.10;0.10;;;10.70;63.20;;;;;;5052166;28;20037;-70
2024/01/03 03:57:52;;;;;;;1.85;0.45;;;10.80;63.50;;;;;;5051241;28;20045;-70
2024/01/03 04:00:19;;;;;;;0.15;0.15;;;10.80;63.50;;;;;;5051414;28;20043;-70
2024/01/03 04:02:45;;;;;;;0.28;0.28;;;10.80;63.40;;;;;;5051139;28;20029;-70
2024/01/03 04:05:12;;;;;;;0.80;0.63;;;10.80;63.40;;;;;;5052549;28;20033;-70
2024/01/03 04:07:38;;;;;;;0.08;0.08;;;10.80;62.80;;;;;;5052128;28;20548;-71
2024/01/03 04:10:05;;;;;;;0.10;0.10;;;10.90;63.20;;;;;;5051700;28;20029;-69
2024/01/03 04:12:31;;;;;;;0.38;0.35;;;10.90;62.90;;;;;;5052662;28;20112;-70
2024/01/03 04:14:57;;;;;;;0.10;0.10;;;10.80;63.10;;;;;;5052141;28;20039;-70
2024/01/03 04:17:23;;;;;;;0.20;0.20;;;10.80;63.10;;;;;;5051163;28;20059;-71
2024/01/03 04:19:49;;;;;;;0.10;0.10;;;10.80;63.10;;;;;;5052158;28;20037;-72
2024/01/03 04:22:15;;;;;;;0.10;0.10;;;10.80;63.00;;;;;;5050399;28;20048;-73
2024/01/03 04:24:41;;;;;;;0.25;0.20;;;10.70;62.20;;;;;;5050849;28;20051;-73
2024/01/03 04:27:07;;;;;;;0.30;0.20;;;10.80;62.80;;;;;;5052420;28;20112;-70
2024/01/03 04:29:33;;;;;;;1.08;0.52;;;10.70;63.00;;;;;;5034045;28;20561;-70
2024/01/03 04:31:59;;;;;;;2.88;0.20;;;10.70;63.00;;;;;;5051993;28;20406;-71
2024/01/03 04:34:25;;;;;;;0.20;0.10;;;10.70;63.50;;;;;;5034036;28;20510;-71
2024/01/03 04:36:52;;;;;;;0.10;0.10;;;10.70;63.60;;;;;;5052063;28;20099;-70
2024/01/03 04:39:18;;;;;;;0.00;0.00;;;10.70;63.80;;;;;;5034064;28;20029;-70
2024/01/03 04:41:44;;;;;;;0.10;0.10;;;10.70;63.90;;;;;;5050275;28;20064;-70
2024/01/03 04:44:10;;;;;;;0.03;0.03;;;10.80;64.10;;;;;;5052184;28;20453;-70
2024/01/03 04:46:36;;;;;;;0.03;0.03;;;10.80;63.70;;;;;;5056241;28;20445;-70
2024/01/03 04:49:03;;;;;;;0.17;0.13;;;10.90;62.80;;;;;;5055934;28;20472;-72
2024/01/03 04:51:29;;;;;;;0.10;0.10;;;11.00;62.80;;;;;;5055507;28;20033;-70
2024/01/03 04:53:55;;;;;;;0.00;0.00;;;11.10;62.70;;;;;;5055750;28;20041;-70
2024/01/03 04:56:21;;;;;;;0.10;0.10;;;11.10;62.60;;;;;;5054517;28;20033;-71
2024/01/03 04:58:47;;;;;;;3.40;0.82;;;11.10;62.70;;;;;;5037879;28;20493;-71
2024/01/03 05:01:13;;;;;;;0.10;0.10;;;11.10;62.30;;;;;;5055138;28;20041;-71
2024/01/03 05:03:39;;;;;;;0.68;0.40;;;11.20;62.30;;;;;;5054400;28;20056;-71
2024/01/03 05:06:06;;;;;;;0.10;0.10;;;11.20;62.40;;;;;;5055378;28;20106;-70
2024/01/03 05:08:32;;;;;;;;;;;11.20;62.40;;;;;;5054752;28;20037;-71
2024/01/03 05:10:58;;;;;;;0.00;0.00;;;11.30;62.60;;;;;;5053816;28;19920;-70
2024/01/03 05:13:25;;;;;;;0.10;0.10;;;11.20;62.60;;;;;;5055424;28;20082;-70
2024/01/03 05:15:52;;;;;;;0.43;0.20;;;11.20;62.80;;;;;;5054124;28;20043;-71
2024/01/03 05:18:17;;;;;;;;;;;11.20;64.10;;;;;;5055846;28;20021;-70
2024/01/03 05:20:44;;;;;;;0.22;0.22;;;11.20;63.30;;;;;;5054513;28;19927;-70
2024/01/03 05:23:10;;;;;;;0.17;0.17;;;11.20;63.50;;;;;;5054114;28;20493;-70
2024/01/03 05:25:36;;;;;;;0.10;0.10;;;11.20;63.60;;;;;;5054084;28;20394;-70
2024/01/03 05:28:02;;;;;;;0.10;0.10;;;11.10;63.90;;;;;;5055320;28;20037;-70
2024/01/03 05:30:28;;;;;;;0.10;0.10;;;11.10;63.90;;;;;;5053147;28;20057;-71
2024/01/03 05:32:54;;;;;;;0.10;0.10;;;11.10;63.60;;;;;;5054163;28;20037;-71
2024/01/03 05:35:20;;;;;;;0.10;0.10;;;11.10;63.60;;;;;;5054737;28;20389;-71
2024/01/03 05:37:46;;;;;;;0.05;0.05;;;11.10;63.70;;;;;;5055250;28;20036;-70
2024/01/03 05:40:12;;;;;;;0.10;0.10;;;11.00;63.70;;;;;;5053699;28;20535;-73
2024/01/03 05:42:38;;;;;;;0.43;0.43;;;11.00;63.90;;;;;;5053512;28;20040;-73
2024/01/03 05:45:05;;;;;;;0.10;0.10;;;11.00;63.90;;;;;;5053426;28;20044;-71
2024/01/03 05:47:31;;;;;;;0.40;0.40;;;11.00;63.30;;;;;;5055274;28;20104;-71
2024/01/03 05:49:57;;;;;;;0.20;0.20;;;11.00;63.90;;;;;;5054872;28;20410;-70
2024/01/03 05:52:23;;;;;;;0.30;0.20;;;11.00;64.30;;;;;;5054571;28;20037;-70
2024/01/03 05:54:49;;;;;;;0.10;0.10;;;10.90;64.50;;;;;;5053333;28;20029;-70
2024/01/03 05:57:15;;;;;;;0.15;0.15;;;10.90;64.50;;;;;;5036226;28;20083;-70
2024/01/03 05:59:41;;;;;;;1.70;1.05;;;10.80;64.30;;;;;;5053205;28;20036;-71
2024/01/03 06:02:07;;;;;;;0.20;0.20;;;10.70;63.50;;;;;;5052795;28;20033;-70
2024/01/03 06:04:34;;;;;;;0.10;0.10;;;10.70;64.40;;;;;;5053271;28;20113;-71
2024/01/03 06:07:00;;;;;;;0.13;0.10;;;10.70;64.50;;;;;;5053197;28;20057;-71
2024/01/03 06:09:26;;;;;;;0.38;0.38;;;10.70;64.20;;;;;;5054293;28;20044;-70
2024/01/03 06:11:52;;;;;;;0.52;0.20;;;10.80;63.90;;;;;;5052427;28;20037;-70
2024/01/03 06:14:18;;;;;;;0.10;0.10;;;10.80;63.60;;;;;;5054399;28;20047;-71
2024/01/03 06:16:44;;;;;;;0.05;0.05;;;10.80;63.60;;;;;;5054705;28;20132;-71
2024/01/03 06:19:10;;;;;;;0.00;0.00;;;10.90;63.60;;;;;;5052880;28;20029;-71
2024/01/03 06:21:36;;;;;;;0.30;0.20;;;10.90;63.50;;;;;;5053882;28;20551;-70
2024/01/03 06:24:02;;;;;;;;;;;10.90;62.70;;;;;;5054682;28;20037;-71
2024/01/03 06:26:30;;;;;;;0.10;0.10;;;11.00;62.60;;;;;;5054258;28;19924;-71
2024/01/03 06:28:57;;;;;;;1.55;0.77;;;11.00;62.60;;;;;;5036592;28;20442;-70
2024/01/03 06:31:23;;;;;;;1.33;0.60;;;11.00;61.90;;;;;;5053623;28;20033;-71
2024/01/03 06:33:50;;;;;;;0.28;0.28;;;11.00;61.90;;;;;;5052736;28;20470;-70
2024/01/03 06:36:16;;;;;;;0.40;0.40;;;11.00;62.30;;;;;;5052524;28;20041;-72
2024/01/03 06:38:42;;;;;;;0.20;0.20;;;11.10;62.40;;;;;;5053981;28;20041;-70
2024/01/03 06:41:09;;;;;;;0.52;0.28;;;11.10;62.10;;;;;;5035377;28;20371;-71
2024/01/03 06:43:35;;;;;;;0.10;0.10;;;11.10;61.90;;;;;;5052951;28;20412;-71
2024/01/03 06:46:01;;;;;;;2.42;1.17;;;11.20;61.70;;;;;;5052016;28;20060;-70
2024/01/03 06:48:27;;;;;;;1.45;0.57;;;11.20;61.50;;;;;;5053756;28;20045;-70
2024/01/03 06:50:53;;;;;;;0.52;0.52;;;11.20;61.30;;;;;;5051912;28;20095;-71
2024/01/03 06:53:19;;;;;;;0.52;0.43;;;11.20;61.30;;;;;;5052387;28;20036;-70
2024/01/03 06:55:45;;;;;;;0.10;0.10;;;11.20;61.40;;;;;;5052238;28;20099;-71
2024/01/03 06:58:11;;;;;;;0.30;0.05;;;11.30;61.40;;;;;;5052051;28;20400;-71
2024/01/03 07:00:37;;;;;;;0.20;0.20;;;11.30;61.30;;;;;;5052936;28;20037;-70
2024/01/03 07:03:04;;;;;;;1.33;1.25;;;11.20;61.00;;;;;;5052268;28;20040;-71
2024/01/03 07:05:30;;;;;;;0.75;0.60;;;11.30;61.00;;;;;;5052183;28;20056;-71
2024/01/03 07:07:58;;;;;;;0.43;0.43;;;11.30;61.30;;;;;;5051132;28;20490;-72
2024/01/03 07:10:31;;;;;;;0.77;0.50;;;11.30;61.20;;;;;;5051354;28;20056;-70
2024/01/03 07:12:58;;;;;;;0.30;0.30;;;11.30;60.50;;;;;;5051991;28;20148;-70
2024/01/03 07:15:26;;;;;;;0.30;0.20;;;11.30;60.80;;;;;;5051614;28;20029;-71
2024/01/03 07:17:55;;;;;;;0.63;0.63;;;11.30;60.80;;;;;;5053230;28;20371;-71
2024/01/03 07:20:22;;;;;;;1.75;1.02;;;11.30;60.70;;;;;;5050822;28;20067;-71
2024/01/03 07:22:49;;;;;;;2.05;1.25;;;11.40;60.70;;;;;;5053152;28;20037;-71
2024/01/03 07:25:16;;;;;;;2.92;1.55;;;11.30;60.70;;;;;;5051565;28;20112;-70
2024/01/03 07:27:42;;;;;;;0.60;0.50;;;11.40;60.50;;;;;;5035375;28;20033;-70
2024/01/03 07:30:10;;;;;;;0.20;0.20;;;11.30;60.70;;;;;;5050948;28;20451;-71
2024/01/03 07:32:37;;;;;;;0.95;0.80;;;11.30;61.40;;;;;;5051951;28;20066;-71
2024/01/03 07:35:03;;;;;;;0.00;0.00;;;11.30;61.60;;;;;;5052736;28;20045;-70
2024/01/03 07:37:29;;;;;;;;;;;11.30;61.40;;;;;;5052133;28;20032;-69
2024/01/03 07:39:55;;;;;;;0.20;0.20;;;11.30;61.30;;;;;;5034854;28;19920;-71
2024/01/03 07:42:21;;;;;;;0.40;0.40;;;11.30;61.40;;;;;;5052521;28;20099;-70
2024/01/03 07:44:47;;;;;;;0.10;0.10;;;11.30;61.70;;;;;;5051312;28;20025;-71
2024/01/03 07:47:13;;;;;;;;;;;11.30;61.90;;;;;;5051982;28;20044;-71
2024/01/03 07:49:42;;;;;;;0.73;0.30;;;11.20;61.70;;;;;;5051142;28;19916;-71
2024/01/03 07:52:08;;;;;;;0.22;0.20;;;11.30;61.20;;;;;;5052360;28;20033;-70
2024/01/03 07:54:34;;;;;;;0.00;0.00;;;11.20;61.90;;;;;;5051460;28;20033;-71
2024/01/03 07:57:04;;;;;;;1.13;0.38;;;11.20;61.90;;;;;;5052672;28;20103;-71
2024/01/03 07:59:32;;;;;;;0.68;0.55;;;11.20;62.10;;;;;;5051249;28;20029;-71
2024/01/03 08:01:58;;;;;;;0.10;0.10;;;11.20;62.10;;;;;;5034004;28;20146;-70
2024/01/03 08:04:25;;;;;;;0.28;0.28;;;11.30;62.20;;;;;;5051095;28;20029;-71
2024/01/03 08:06:51;;;;;;;0.47;0.38;;;11.20;62.30;;;;;;5050627;28;20041;-71
2024/01/03 08:09:17;;;;;;;2.00;1.13;;;11.30;62.40;;;;;;5052174;28;20033;-71
2024/01/03 08:11:43;;;;;;;1.73;0.75;;;11.30;62.10;;;;;;5050587;28;20037;-70
2024/01/03 08:14:09;;;;;;;0.70;0.40;;;11.30;62.20;;;;;;5052159;28;20029;-71
2024/01/03 08:16:35;;;;;;;1.65;0.65;;;11.40;62.10;;;;;;5052458;28;20417;-70
2024/01/03 08:19:01;;;;;;;0.35;0.25;;;11.40;61.70;;;;;;5034027;28;20071;-71
2024/01/03 08:21:27;;;;;;;2.28;0.47;;;11.50;61.50;;;;;;5050504;28;20112;-71
2024/01/03 08:23:53;;;;;;;2.25;0.60;;;11.60;61.20;;;;;;5050974;28;20033;-70
2024/01/03 08:26:21;;;;;;;3.58;2.55;;;11.60;61.10;;;;;;5034332;28;20536;-70
2024/01/03 08:28:47;;;;;;;1.40;0.93;;;11.70;60.90;;;;;;5050628;28;20041;-70
2024/01/03 08:31:33;;;;;;;36.88;2.92;;;11.80;60.60;;;;;;5050403;28;20048;-71
2024/01/03 08:33:59;;;;;;;1.98;1.17;;;11.90;60.50;;;;;;5050842;28;20486;-70
2024/01/03 08:36:41;;;;;;;2.17;0.70;;;12.00;60.40;;;;;;5050809;28;20552;-70
2024/01/03 08:39:07;;;;;;;3.45;1.65;;;12.00;60.30;;;;;;5050782;28;20083;-70
2024/01/03 08:41:34;;;;;;;1.48;0.63;;;12.10;60.10;;;;;;5051741;28;20045;-70
2024/01/03 08:44:07;;;;;;;2.17;1.33;;;12.20;59.90;;;;;;5050953;28;20040;-71
2024/01/03 08:46:40;;;;;;;3.75;2.10;;;12.20;60.10;;;;;;5051046;28;20083;-70
2024/01/03 08:49:07;;;;;;;0.43;0.30;;;12.30;60.40;;;;;;5050323;28;20440;-70
2024/01/03 08:51:33;;;;;;;0.57;0.40;;;12.40;59.70;;;;;;5033640;28;20489;-71
2024/01/03 08:53:59;;;;;;;0.10;0.10;;;12.40;59.60;;;;;;5050597;28;20033;-71
2024/01/03 08:56:26;;;;;;;1.13;0.73;;;12.40;59.30;;;;;;5050811;28;20038;-70
2024/01/03 08:58:52;;;;;;;0.40;0.30;;;12.40;59.40;;;;;;5050441;28;20450;-70
2024/01/03 09:01:36;;;;;;;1.35;0.70;;;12.40;59.60;;;;;;5051670;28;20051;-70
2024/01/03 09:04:03;;;;;;;1.27;0.65;;;12.50;59.40;;;;;;5050440;28;20561;-71
2024/01/03 09:06:29;;;;;;;0.20;0.20;;;12.50;59.20;;;;;;5050480;28;20513;-70
2024/01/03 09:08:55;;;;;;;0.50;0.45;;;12.60;58.80;;;;;;5051592;28;20509;-70
2024/01/03 09:11:42;;;;;;;2.28;0.52;;;12.70;58.70;;;;;;5051470;28;20044;-70
2024/01/03 09:14:08;;;;;;;0.17;0.17;;;12.70;58.40;;;;;;5051717;28;20056;-70
2024/01/03 09:16:34;;;;;;;1.10;0.45;;;12.80;58.40;;;;;;5050369;28;20033;-71
2024/01/03 09:19:02;;;;;;;0.45;0.45;;;12.80;58.10;;;;;;5050300;28;20140;-71
2024/01/03 09:21:31;;;;;;;0.30;0.20;;;12.90;58.00;;;;;;5051238;28;20033;-71
2024/01/03 09:23:59;;;;;;;0.65;0.32;;;13.00;58.00;;;;;;5034017;28;20021;-71
2024/01/03 09:26:25;;;;;;;0.30;0.30;;;13.00;57.60;;;;;;5050461;28;20120;-70
2024/01/03 09:28:52;;;;;;;2.38;2.05;;;13.10;57.30;;;;;;5051313;28;20039;-71
2024/01/03 09:31:18;;;;;;;1.33;0.68;;;13.20;57.30;;;;;;5051230;28;20421;-71
2024/01/03 09:33:44;;;;;;;;;;;13.20;57.00;;;;;;5055663;28;20025;-71
2024/01/03 09:36:18;;;;;;;1.08;0.50;;;13.40;57.20;;;;;;5054901;28;20366;-70
2024/01/03 09:38:45;;;;;;;0.93;0.43;;;13.30;57.50;;;;;;5054948;28;20053;-70
2024/01/03 09:41:15;;;;;;;0.75;0.30;;;13.40;57.20;;;;;;5054470;28;20041;-71
2024/01/03 09:44:01;;;;;;;0.35;0.30;;;13.40;56.70;;;;;;5055253;28;20033;-71
2024/01/03 09:46:27;;;;;;;0.85;0.50;;;13.50;56.30;;;;;;5036998;28;20363;-70
2024/01/03 09:48:53;;;;;;;0.40;0.25;;;13.70;56.00;;;;;;5053460;28;20498;-71
2024/01/03 09:51:20;;;;;;;;;;;13.70;55.40;;;;;;5054920;28;20041;-70
2024/01/03 09:53:46;;;;;;;0.10;0.10;;;13.70;55.80;;;;;;5053926;28;19912;-71
2024/01/03 09:56:12;;;;;;;1.27;0.82;;;13.70;55.70;;;;;;5053374;28;20041;-70
2024/01/03 09:58:38;;;;;;;0.57;0.47;;;13.70;56.30;;;;;;5053340;28;20032;-71
2024/01/03 10:01:04;;;;;;;4.88;1.98;;;13.80;56.40;;;;;;5052673;28;20087;-70
2024/01/03 10:03:30;;;;;;;0.80;0.50;;;13.80;56.60;;;;;;5053455;28;20025;-71
2024/01/03 10:06:15;;;;;;;3.47;0.75;;;13.80;56.40;;;;;;5052769;28;20053;-72
2024/01/03 10:08:44;;;;;;;0.13;0.13;;;13.90;56.40;;;;;;5053102;28;20104;-71
2024/01/03 10:11:29;;;;;;;0.22;0.20;;;13.90;56.30;;;;;;5052630;28;20383;-70
2024/01/03 10:13:57;;;;;;;0.20;0.20;;;14.00;55.80;;;;;;5052973;28;20033;-71
2024/01/03 10:16:28;;;;;;;0.88;0.88;;;14.00;55.10;;;;;;5052967;28;20402;-70
2024/01/03 10:19:18;;;;;;;0.73;0.68;;;14.00;55.70;;;;;;5052922;28;20029;-70
2024/01/03 10:22:12;;;;;;;0.90;0.90;;;14.10;55.50;;;;;;5035856;28;20128;-70
2024/01/03 10:24:42;;;;;;;1.15;0.55;;;14.10;55.50;;;;;;5052813;28;20037;-70
2024/01/03 10:27:10;;;;;;;0.32;0.30;;;14.10;55.10;;;;;;5053043;28;20047;-72
2024/01/03 10:29:38;;;;;;;1.15;0.43;;;14.20;55.00;;;;;;5052890;28;20371;-72
2024/01/03 10:32:09;;;;;;;0.30;0.30;;;14.30;55.00;;;;;;5035578;28;20094;-71
2024/01/03 10:34:37;;;;;;;0.10;0.10;;;14.30;54.60;;;;;;5052847;28;20059;-70
2024/01/03 10:37:04;;;;;;;0.10;0.10;;;14.20;54.00;;;;;;5052908;28;20060;-70
2024/01/03 10:42:18;;;;;;;0.00;0.00;;;14.10;53.50;;;;;;5052223;28;20039;-70
2024/01/03 10:44:44;;;;;;;0.10;0.10;;;14.20;54.50;;;;;;5052609;28;20037;-71
2024/01/03 10:47:11;;;;;;;0.00;0.00;;;14.30;53.80;;;;;;5052869;28;20254;-71
2024/01/03 10:49:37;;;;;;;0.10;0.10;;;14.30;54.10;;;;;;5052433;28;20037;-70
2024/01/03 10:52:06;;;;;;;0.20;0.20;;;14.40;53.80;;;;;;5051981;28;20048;-69
2024/01/03 10:54:44;;;;;;;0.10;0.10;;;14.50;52.30;;;;;;5035542;28;20036;-71
2024/01/03 10:57:13;;;;;;;0.10;0.10;;;14.50;52.50;;;;;;5052472;28;20033;-71
2024/01/03 10:59:52;;;;;;;0.52;0.10;;;14.80;52.00;;;;;;5052170;28;20087;-70
2024/01/03 11:02:42;;;;;;;0.00;0.00;;;14.90;51.90;;;;;;5051984;28;20061;-71
2024/01/03 11:05:28;;;;;;;0.13;0.13;;;15.80;50.00;;;;;;5052136;28;20059;-71
2024/01/03 11:08:03;;;;;;;0.20;0.20;;;17.20;45.50;;;;;;5052219;28;20521;-70
2024/01/03 11:10:54;;;;;;;0.03;0.03;;;18.40;42.00;;;;;;5051405;28;20397;-70
2024/01/03 11:13:40;;;;;;;0.52;0.30;;;17.50;42.80;;;;;;5052294;28;20033;-71
2024/01/03 11:16:09;;;;;;;0.55;0.20;;;17.20;44.30;;;;;;5053146;28;20040;-71
2024/01/03 11:18:54;;;;;;;0.10;0.10;;;16.60;45.80;;;;;;5053086;28;20041;-71
2024/01/03 11:21:40;;;;;;;0.30;0.10;;;16.10;46.30;;;;;;5052570;28;20048;-71
2024/01/03 11:24:46;;;;;;;0.00;0.00;;;15.80;48.10;;;;;;5051794;28;20021;-69
2024/01/03 11:27:31;;;;;;;0.32;0.20;;;16.70;45.00;;;;;;5051941;28;20128;-71
2024/01/03 11:29:57;;;;;;;0.43;0.10;;;16.10;47.30;;;;;;5052947;28;20032;-72
2024/01/03 11:32:42;;;;;;;;;;;15.80;47.30;;;;;;5051654;28;20045;-70
2024/01/03 11:35:08;;;;;;;0.13;0.13;;;15.50;47.80;;;;;;5034688;28;19920;-71
2024/01/03 11:37:36;;;;;;;0.20;0.20;;;15.30;48.40;;;;;;5053438;28;20083;-70
2024/01/03 11:40:06;;;;;;;0.20;0.10;;;15.10;48.20;;;;;;5051588;28;20029;-72
2024/01/03 11:42:53;;;;;;;0.00;0.00;;;15.20;47.30;;;;;;5051378;28;20068;-71
2024/01/03 11:45:22;;;;;;;0.10;0.10;;;15.20;48.00;;;;;;5052283;28;20047;-69
2024/01/03 11:47:49;;;;;;;0.10;0.10;;;15.20;48.30;;;;;;5052801;28;20390;-71
2024/01/03 11:50:17;;;;;;;0.45;0.40;;;15.30;47.70;;;;;;5051777;28;20051;-69
2024/01/03 11:52:47;;;;;;;0.10;0.10;;;15.30;47.60;;;;;;5051602;28;20029;-70
2024/01/03 11:55:16;;;;;;;0.20;0.20;;;15.40;47.20;;;;;;5050626;28;20025;-69
2024/01/03 11:58:20;;;;;;;0.10;0.10;;;15.40;47.10;;;;;;5053094;28;20398;-69
2024/01/03 12:00:46;;;;;;;0.05;0.05;;;15.60;45.50;;;;;;5050284;28;20067;-70
2024/01/03 12:03:26;;;;;;;0.22;0.15;;;16.20;44.70;;;;;;5051407;28;20033;-70
2024/01/03 12:05:52;;;;;;;0.20;0.20;;;16.50;42.70;;;;;;5050887;28;20053;-71
2024/01/03 12:08:20;;;;;;;0.10;0.10;;;17.20;42.30;;;;;;5051283;28;20033;-70
2024/01/03 12:10:48;;;;;;;0.10;0.10;;;17.20;41.60;;;;;;5051483;28;20045;-71
2024/01/03 12:13:14;;;;;;;2.63;0.28;;;16.80;41.80;;;;;;5051264;28;20108;-72
2024/01/03 12:15:41;;;;;;;0.10;0.10;;;16.90;42.60;;;;;;5050530;28;20044;-70
2024/01/03 12:18:08;;;;;;;0.00;0.00;;;16.80;41.00;;;;;;5052238;28;20033;-69
2024/01/03 12:20:34;;;;;;;0.50;0.50;;;16.70;43.00;;;;;;5051738;28;20033;-71
2024/01/03 12:23:19;;;;;;;0.08;0.08;;;16.60;42.10;;;;;;5051182;28;20530;-70
2024/01/03 12:25:46;;;;;;;0.38;0.20;;;16.40;41.60;;;;;;5050614;28;20039;-69
2024/01/03 12:28:22;;;;;;;0.10;0.10;;;16.40;42.10;;;;;;5052260;28;20036;-71
2024/01/03 12:30:50;;;;;;;0.10;0.10;;;16.60;42.60;;;;;;5050385;28;20583;-71
2024/01/03 12:33:18;;;;;;;0.00;0.00;;;16.80;41.20;;;;;;5052373;28;20485;-71
2024/01/03 12:36:05;;;;;;;0.25;0.25;;;16.80;40.70;;;;;;5051783;28;20461;-71
2024/01/03 12:38:31;;;;;;;0.10;0.10;;;17.00;40.80;;;;;;5050698;28;20049;-71
2024/01/03 12:40:57;;;;;;;3.78;0.30;;;17.20;40.00;;;;;;5033697;28;20036;-70
2024/01/03 12:43:23;;;;;;;0.10;0.10;;;17.30;39.20;;;;;;5050898;28;20497;-71
2024/01/03 12:45:49;;;;;;;0.43;0.22;;;17.90;38.50;;;;;;5051802;28;20056;-70
2024/01/03 12:48:15;;;;;;;0.10;0.10;;;18.00;37.20;;;;;;5052363;28;20025;-71
2024/01/03 12:50:42;;;;;;;0.47;0.20;;;17.80;37.70;;;;;;5049930;28;20402;-71
2024/01/03 12:53:08;;;;;;;1.55;0.57;;;17.80;37.50;;;;;;5051942;28;20052;-71
2024/01/03 12:55:34;;;;;;;;;;;18.00;37.60;;;;;;5051527;28;20382;-71
2024/01/03 12:58:00;;;;;;;0.00;0.00;;;17.60;38.30;;;;;;5034112;28;20003;-70
2024/01/03 13:00:26;;;;;;;0.10;0.10;;;18.30;37.20;;;;;;5051101;28;20424;-70
2024/01/03 13:02:52;;;;;;;0.10;0.10;;;18.70;37.40;;;;;;5050724;28;20471;-71
2024/01/03 13:05:18;;;;;;;0.20;0.20;;;18.20;36.70;;;;;;5051460;28;20087;-71